Eliasville, TX (76481)

2:58 PM CDT on August 29, 2014 (GMT -0500)
SOUTH BEND STATION 1 | Change Station
CLOSE
Current Station
Personal Weather Station
Location: SOUTH BEND, TX
Elevation: 1056 ft
Nearby Weather Stations

Elev 1056 ft 33.01 °N, 98.66 °W | Updated 56 seconds ago

Overcast
Overcast
81.9 °F
Feels Like 87 °F
N
0.0
Wind Variable Wind from NW
Gusts 3.0 mph

Today
High -- | Low -- °F
--% Chance of Precip.
Yesterday
High -- | Low -- °F
Precip. -- in
7:07 AM 8:03 PM
Waxing Crescent, 16% visible
Pressure 29.91 in
Visibility 10.0 miles
Clouds Scattered Clouds 7500 ft
Heat Index 87 °F
Dew Point 73 °F
Humidity 74%
Rainfall 0.74 in
Snow Depth Not available.
UV 8 out of 12
Pollen 8.50 out of 12
Air Quality Not available.
Flu Activity Not available.
METAR KRPH 291935Z AUTO 32004KT 10SM SCT075 27/21 A2991 RMK AO2 T02740210

More Conditions Fewer Conditions

Pressure 29.91 in
Visibility 10.0 miles
Clouds Scattered Clouds 7500 ft
Heat Index 87 °F
Dew Point 73 °F
Humidity 74%
Rainfall 0.74 in
Snow Depth Not available.
UV 8 out of 12
Pollen 8.50 out of 12
Air Quality Not available.
Flu Activity Not available.
METAR KRPH 291935Z AUTO 32004KT 10SM SCT075 27/21 A2991 RMK AO2 T02740210

More Conditions Fewer Conditions

Nowcast | as of 2:56 PM CDT on August 29, 2014

Scattered thunderstorms extending from Centerville to Hearne are moving little. These storms will occasionally produce heavy rain and frequent lightning. Another area of thunderstorms is moving east along the Interstate 20 corridor near the possum kingdom...Breckenridge and Cisco areas. These storms should approach The Fort Worth area 5 to 6 PM and Dallas 6 to 7 PM. Brief heavy rain and frequent lightning will accompany these storms as well.

×

10-Day Weather Forecast

Almanac

Astronomy

Aug. 29, 2014 Rise Set
Actual Time 7:07 AM CDT 8:03 PM CDT
Civil Twilight 6:41 AM CDT 8:28 PM CDT
Nautical Twilight 6:11 AM CDT 8:58 PM CDT
Astronomical Twilight 5:40 AM CDT 9:29 PM CDT
Moon 10:43 AM CDT 10:17 PM CDT
Length of Visible Light 13h 46m
Length of Day
12h 56m
Tomorrow will be 1m 56s shorter.
Waxing Crescent, 16% of the Moon is Illuminated
Today
Waxing Crescent
Sep 2
First Quarter
Sep 8
Full
Sep 15
Last Quarter
Sep 24
New

Today's Extremes

State Highs State Lows

Community

WunderPhotos

Upload Photos

1,748,325 photos uploaded!

WunderBlogs® & News

By Dr. Jeff Masters
Director of Meteorology, Weather Underground
By Kari Strenfel
Meteorologist, Weather Underground
By Christopher C. Burt
Weather Historian, Weather Underground
August 29, 2014
August 29, 2014
August 29, 2014

Nearby

Snow Depth

Station Depth Elevation
No new snow has been reported.

Earthquake Activity

City Distance Mag. Time & Date
No recent earthquake activity has been reported nearby.
Minimum magnitude displayed is 2.5.

Coastal Water Temperatures

Place Temperature
No Stations Reporting

Nearby Weather Stations